sensor_id;sensor_type;location;lat;lon;timestamp;pressure;altitude;pressure_sealevel;temperature;humidity
75407;BME280;63978;55.814;37.340;2022-10-16T00:01:33;101088.59;;;15.16;42.98
75407;BME280;63978;55.814;37.340;2022-10-16T00:04:00;101093.22;;;15.16;42.69
75407;BME280;63978;55.814;37.340;2022-10-16T00:06:27;101094.31;;;15.15;42.89
75407;BME280;63978;55.814;37.340;2022-10-16T00:08:53;101082.59;;;15.09;42.88
75407;BME280;63978;55.814;37.340;2022-10-16T00:11:19;101097.59;;;15.12;42.65
75407;BME280;63978;55.814;37.340;2022-10-16T00:13:47;101100.84;;;15.09;42.97
75407;BME280;63978;55.814;37.340;2022-10-16T00:16:13;101106.31;;;15.09;42.77
75407;BME280;63978;55.814;37.340;2022-10-16T00:18:40;101098.94;;;15.09;42.82
75407;BME280;63978;55.814;37.340;2022-10-16T00:21:12;101101.38;;;15.06;42.83
75407;BME280;63978;55.814;37.340;2022-10-16T00:23:38;101098.91;;;15.04;42.74
75407;BME280;63978;55.814;37.340;2022-10-16T00:26:09;101106.53;;;15.02;42.85
75407;BME280;63978;55.814;37.340;2022-10-16T00:28:35;101104.06;;;15.01;42.77
75407;BME280;63978;55.814;37.340;2022-10-16T00:31:09;101104.06;;;15.01;42.62
75407;BME280;63978;55.814;37.340;2022-10-16T00:33:36;101099.97;;;14.98;42.77
75407;BME280;63978;55.814;37.340;2022-10-16T00:36:03;101107.31;;;14.98;42.80
75407;BME280;63978;55.814;37.340;2022-10-16T00:38:29;101102.94;;;14.97;42.83
75407;BME280;63978;55.814;37.340;2022-10-16T00:40:55;101102.13;;;14.96;42.81
75407;BME280;63978;55.814;37.340;2022-10-16T00:43:41;101111.38;;;14.95;42.80
75407;BME280;63978;55.814;37.340;2022-10-16T00:46:28;101105.63;;;14.91;43.05
75407;BME280;63978;55.814;37.340;2022-10-16T00:49:01;101104.81;;;14.91;42.97
75407;BME280;63978;55.814;37.340;2022-10-16T00:51:39;101109.44;;;14.90;43.02
75407;BME280;63978;55.814;37.340;2022-10-16T00:54:13;101115.97;;;14.89;42.59
75407;BME280;63978;55.814;37.340;2022-10-16T00:56:39;101117.06;;;14.88;43.17
75407;BME280;63978;55.814;37.340;2022-10-16T00:59:12;101115.41;;;14.87;42.55
75407;BME280;63978;55.814;37.340;2022-10-16T01:01:39;101122.50;;;14.88;42.72
75407;BME280;63978;55.814;37.340;2022-10-16T01:04:04;101114.03;;;14.85;42.63
75407;BME280;63978;55.814;37.340;2022-10-16T01:07:06;101124.66;;;14.86;42.68
75407;BME280;63978;55.814;37.340;2022-10-16T01:15:18;101116.97;;;14.78;42.76
75407;BME280;63978;55.814;37.340;2022-10-16T01:18:11;101117.75;;;14.74;43.02
75407;BME280;63978;55.814;37.340;2022-10-16T01:20:47;101127.31;;;14.76;42.79
75407;BME280;63978;55.814;37.340;2022-10-16T01:28:58;101127.56;;;14.75;42.58
75407;BME280;63978;55.814;37.340;2022-10-16T01:31:31;101128.09;;;14.72;42.72
75407;BME280;63978;55.814;37.340;2022-10-16T01:34:18;101127.78;;;14.68;43.13
75407;BME280;63978;55.814;37.340;2022-10-16T01:36:56;101127.22;;;14.66;43.21
75407;BME280;63978;55.814;37.340;2022-10-16T01:39:29;101120.63;;;14.57;42.73
75407;BME280;63978;55.814;37.340;2022-10-16T01:42:01;101133.81;;;14.70;42.31
75407;BME280;63978;55.814;37.340;2022-10-16T01:44:32;101131.34;;;14.69;42.82
75407;BME280;63978;55.814;37.340;2022-10-16T01:46:59;101135.69;;;14.70;42.92
75407;BME280;63978;55.814;37.340;2022-10-16T01:49:30;101131.59;;;14.67;43.07
75407;BME280;63978;55.814;37.340;2022-10-16T01:51:59;101118.47;;;14.59;42.71
75407;BME280;63978;55.814;37.340;2022-10-16T01:54:27;101134.88;;;14.64;42.72
75407;BME280;63978;55.814;37.340;2022-10-16T01:56:54;101132.16;;;14.64;42.74
75407;BME280;63978;55.814;37.340;2022-10-16T01:59:24;101116.22;;;14.51;42.70
75407;BME280;63978;55.814;37.340;2022-10-16T02:01:58;101132.09;;;14.59;42.79
75407;BME280;63978;55.814;37.340;2022-10-16T02:04:31;101125.25;;;14.56;42.46
75407;BME280;63978;55.814;37.340;2022-10-16T02:06:58;101132.66;;;14.61;42.79
75407;BME280;63978;55.814;37.340;2022-10-16T02:09:25;101137.03;;;14.62;42.57
75407;BME280;63978;55.814;37.340;2022-10-16T02:11:53;101143.56;;;14.61;42.39
75407;BME280;63978;55.814;37.340;2022-10-16T02:14:21;101137.53;;;14.59;42.87
75407;BME280;63978;55.814;37.340;2022-10-16T02:16:49;101140.28;;;14.59;42.57
75407;BME280;63978;55.814;37.340;2022-10-16T02:19:16;101134.25;;;14.57;42.49
75407;BME280;63978;55.814;37.340;2022-10-16T02:21:51;101135.34;;;14.56;42.55
75407;BME280;63978;55.814;37.340;2022-10-16T02:27:18;101137.50;;;14.54;42.66
75407;BME280;63978;55.814;37.340;2022-10-16T02:29:50;101139.09;;;14.50;42.47
75407;BME280;63978;55.814;37.340;2022-10-16T02:32:21;101145.09;;;14.52;42.57
75407;BME280;63978;55.814;37.340;2022-10-16T02:34:49;101144.53;;;14.50;42.77
75407;BME280;63978;55.814;37.340;2022-10-16T02:37:16;101147.25;;;14.50;42.47
75407;BME280;63978;55.814;37.340;2022-10-16T02:39:42;101152.72;;;14.50;42.73
75407;BME280;63978;55.814;37.340;2022-10-16T02:42:15;101145.06;;;14.47;42.76
75407;BME280;63978;55.814;37.340;2022-10-16T02:44:42;101149.13;;;14.44;43.07
75407;BME280;63978;55.814;37.340;2022-10-16T02:47:08;101151.59;;;14.46;42.80
75407;BME280;63978;55.814;37.340;2022-10-16T02:49:33;101151.50;;;14.41;42.60
75407;BME280;63978;55.814;37.340;2022-10-16T02:51:58;101149.38;;;14.43;42.75
75407;BME280;63978;55.814;37.340;2022-10-16T02:54:24;101152.09;;;14.43;42.64
75407;BME280;63978;55.814;37.340;2022-10-16T02:56:49;101155.06;;;14.41;42.70
75407;BME280;63978;55.814;37.340;2022-10-16T02:59:15;101150.94;;;14.39;42.78
75407;BME280;63978;55.814;37.340;2022-10-16T03:01:41;101156.38;;;14.39;42.76
75407;BME280;63978;55.814;37.340;2022-10-16T03:04:06;101163.47;;;14.40;42.77
75407;BME280;63978;55.814;37.340;2022-10-16T03:06:32;101152.53;;;14.35;42.85
75407;BME280;63978;55.814;37.340;2022-10-16T03:08:57;101137.97;;;14.24;42.75
75407;BME280;63978;55.814;37.340;2022-10-16T03:11:22;101163.47;;;14.40;42.61
75407;BME280;63978;55.814;37.340;2022-10-16T03:13:48;101166.19;;;14.40;42.35
75407;BME280;63978;55.814;37.340;2022-10-16T03:16:13;101163.47;;;14.40;42.67
75407;BME280;63978;55.814;37.340;2022-10-16T03:18:39;101163.69;;;14.33;42.51
75407;BME280;63978;55.814;37.340;2022-10-16T03:21:04;101165.56;;;14.33;42.39
75407;BME280;63978;55.814;37.340;2022-10-16T03:23:30;101167.47;;;14.32;42.63
75407;BME280;63978;55.814;37.340;2022-10-16T03:25:56;101169.69;;;14.35;42.62
75407;BME280;63978;55.814;37.340;2022-10-16T03:28:21;101161.72;;;14.28;42.58
75407;BME280;63978;55.814;37.340;2022-10-16T03:30:46;101172.91;;;14.32;42.60
75407;BME280;63978;55.814;37.340;2022-10-16T03:33:12;101165.84;;;14.31;42.51
75407;BME280;63978;55.814;37.340;2022-10-16T03:35:37;101172.66;;;14.34;42.43
75407;BME280;63978;55.814;37.340;2022-10-16T03:38:03;101177.03;;;14.35;42.43
75407;BME280;63978;55.814;37.340;2022-10-16T03:40:29;101177.53;;;14.32;42.27
75407;BME280;63978;55.814;37.340;2022-10-16T03:42:57;101176.97;;;14.29;42.69
75407;BME280;63978;55.814;37.340;2022-10-16T03:45:23;101180.22;;;14.26;42.58
75407;BME280;63978;55.814;37.340;2022-10-16T03:47:49;101174.50;;;14.28;42.80
75407;BME280;63978;55.814;37.340;2022-10-16T03:50:15;101181.03;;;14.27;42.55
75407;BME280;63978;55.814;37.340;2022-10-16T03:52:40;101184.00;;;14.25;42.77
75407;BME280;63978;55.814;37.340;2022-10-16T03:55:06;101178.56;;;14.25;42.53
75407;BME280;63978;55.814;37.340;2022-10-16T03:57:32;101182.44;;;14.29;42.54
75407;BME280;63978;55.814;37.340;2022-10-16T03:59:58;101178.88;;;14.29;42.58
75407;BME280;63978;55.814;37.340;2022-10-16T04:02:23;101181.84;;;14.27;42.42
75407;BME280;63978;55.814;37.340;2022-10-16T04:04:49;101173.63;;;14.22;42.61
75407;BME280;63978;55.814;37.340;2022-10-16T04:07:14;101152.03;;;14.11;42.79
75407;BME280;63978;55.814;37.340;2022-10-16T04:09:40;101187.81;;;14.24;42.53
75407;BME280;63978;55.814;37.340;2022-10-16T04:12:05;101181.22;;;14.20;42.54
75407;BME280;63978;55.814;37.340;2022-10-16T04:14:31;101174.16;;;14.19;42.77
75407;BME280;63978;55.814;37.340;2022-10-16T04:16:56;101172.78;;;14.17;42.61
75407;BME280;63978;55.814;37.340;2022-10-16T04:19:22;101174.69;;;14.16;42.96
75407;BME280;63978;55.814;37.340;2022-10-16T04:21:47;101187.72;;;14.14;42.89
75407;BME280;63978;55.814;37.340;2022-10-16T04:24:13;101188.22;;;14.11;43.12
75407;BME280;63978;55.814;37.340;2022-10-16T04:26:38;101189.88;;;14.12;43.00
75407;BME280;63978;55.814;37.340;2022-10-16T04:29:04;101187.72;;;14.14;43.19
75407;BME280;63978;55.814;37.340;2022-10-16T04:31:29;101182.78;;;14.11;42.89
75407;BME280;63978;55.814;37.340;2022-10-16T04:33:55;101186.59;;;14.10;43.02
75407;BME280;63978;55.814;37.340;2022-10-16T04:36:20;101200.25;;;14.15;42.69
75407;BME280;63978;55.814;37.340;2022-10-16T04:38:46;101202.41;;;14.13;42.86
75407;BME280;63978;55.814;37.340;2022-10-16T04:41:11;101200.25;;;14.15;42.89
75407;BME280;63978;55.814;37.340;2022-10-16T04:43:37;101200.25;;;14.15;43.07
75407;BME280;63978;55.814;37.340;2022-10-16T04:46:02;101193.69;;;14.11;42.98
75407;BME280;63978;55.814;37.340;2022-10-16T04:48:30;101199.69;;;14.13;42.96
75407;BME280;63978;55.814;37.340;2022-10-16T04:50:55;101204.34;;;14.18;42.95
75407;BME280;63978;55.814;37.340;2022-10-16T04:53:21;101193.16;;;14.14;43.15
75407;BME280;63978;55.814;37.340;2022-10-16T04:55:46;101204.97;;;14.25;42.88
75407;BME280;63978;55.814;37.340;2022-10-16T04:58:12;101197.31;;;14.22;42.99
75407;BME280;63978;55.814;37.340;2022-10-16T05:00:38;101204.16;;;14.24;42.72
75407;BME280;63978;55.814;37.340;2022-10-16T05:03:03;101202.25;;;14.25;42.80
75407;BME280;63978;55.814;37.340;2022-10-16T05:05:33;101203.94;;;14.31;42.69
75407;BME280;63978;55.814;37.340;2022-10-16T05:07:58;101204.78;;;14.32;42.97
75407;BME280;63978;55.814;37.340;2022-10-16T05:10:24;101207.00;;;14.35;43.04
75407;BME280;63978;55.814;37.340;2022-10-16T05:12:49;101208.63;;;14.36;42.92
75407;BME280;63978;55.814;37.340;2022-10-16T05:15:16;101203.75;;;14.38;43.17
75407;BME280;63978;55.814;37.340;2022-10-16T05:17:42;101203.25;;;14.41;42.78
75407;BME280;63978;55.814;37.340;2022-10-16T05:20:07;101205.47;;;14.44;42.86
75407;BME280;63978;55.814;37.340;2022-10-16T05:22:33;101189.81;;;14.34;42.80
75407;BME280;63978;55.814;37.340;2022-10-16T05:24:58;101204.91;;;14.42;42.56
75407;BME280;63978;55.814;37.340;2022-10-16T05:27:24;101226.25;;;14.50;42.66
75407;BME280;63978;55.814;37.340;2022-10-16T05:29:50;101212.63;;;14.50;42.68
75407;BME280;63978;55.814;37.340;2022-10-16T05:32:16;101214.91;;;14.58;42.71
75407;BME280;63978;55.814;37.340;2022-10-16T05:34:43;101210.59;;;14.62;42.35
75407;BME280;63978;55.814;37.340;2022-10-16T05:37:09;101215.50;;;14.65;42.42
75407;BME280;63978;55.814;37.340;2022-10-16T05:39:36;101213.56;;;14.60;42.09
75407;BME280;63978;55.814;37.340;2022-10-16T05:42:02;101217.94;;;14.67;42.21
75407;BME280;63978;55.814;37.340;2022-10-16T05:44:27;101196.09;;;14.56;41.99
75407;BME280;63978;55.814;37.340;2022-10-16T05:46:53;101225.66;;;14.75;41.76
75407;BME280;63978;55.814;37.340;2022-10-16T05:49:18;101217.50;;;14.75;41.92
75407;BME280;63978;55.814;37.340;2022-10-16T05:51:44;101229.88;;;14.87;41.86
75407;BME280;63978;55.814;37.340;2022-10-16T05:54:09;101224.44;;;14.87;41.79
75407;BME280;63978;55.814;37.340;2022-10-16T05:56:35;101226.97;;;14.99;41.88
75407;BME280;63978;55.814;37.340;2022-10-16T05:59:00;101230.00;;;15.03;41.91
75407;BME280;63978;55.814;37.340;2022-10-16T06:01:26;101234.16;;;15.10;41.46
75407;BME280;63978;55.814;37.340;2022-10-16T06:03:52;101230.94;;;15.18;41.41
75407;BME280;63978;55.814;37.340;2022-10-16T06:06:23;101224.97;;;15.21;41.11
75407;BME280;63978;55.814;37.340;2022-10-16T06:08:49;101233.72;;;15.23;41.39
75407;BME280;63978;55.814;37.340;2022-10-16T06:11:20;101246.25;;;15.24;41.09
75407;BME280;63978;55.814;37.340;2022-10-16T06:13:52;101223.00;;;15.17;41.16
75407;BME280;63978;55.814;37.340;2022-10-16T06:16:19;101228.84;;;15.31;41.12
75407;BME280;63978;55.814;37.340;2022-10-16T06:18:45;101223.91;;;15.27;40.86
75407;BME280;63978;55.814;37.340;2022-10-16T06:21:21;101227.50;;;15.33;40.68
75407;BME280;63978;55.814;37.340;2022-10-16T06:23:47;101235.44;;;15.35;40.98
75407;BME280;63978;55.814;37.340;2022-10-16T06:26:15;101229.97;;;15.35;40.76
75407;BME280;63978;55.814;37.340;2022-10-16T06:28:41;101224.53;;;15.35;40.83
75407;BME280;63978;55.814;37.340;2022-10-16T06:31:08;101241.25;;;15.48;40.80
75407;BME280;63978;55.814;37.340;2022-10-16T06:33:35;101241.25;;;15.48;40.52
75407;BME280;63978;55.814;37.340;2022-10-16T06:36:14;101247.84;;;15.52;40.63
75407;BME280;63978;55.814;37.340;2022-10-16T06:38:41;101249.00;;;15.56;40.60
75407;BME280;63978;55.814;37.340;2022-10-16T06:41:07;101247.91;;;15.57;40.58
75407;BME280;63978;55.814;37.340;2022-10-16T06:43:34;101248.72;;;15.63;40.64
75407;BME280;63978;55.814;37.340;2022-10-16T06:46:04;101246.81;;;15.64;40.55
75407;BME280;63978;55.814;37.340;2022-10-16T06:48:30;101252.84;;;15.66;40.60
75407;BME280;63978;55.814;37.340;2022-10-16T06:53:30;101253.44;;;15.73;40.77
75407;BME280;63978;55.814;37.340;2022-10-16T06:55:56;101249.88;;;15.72;40.49
75407;BME280;63978;55.814;37.340;2022-10-16T06:58:22;101251.56;;;15.78;40.92
75407;BME280;63978;55.814;37.340;2022-10-16T07:00:48;101254.03;;;15.80;40.90
75407;BME280;63978;55.814;37.340;2022-10-16T07:03:14;101249.66;;;15.79;41.00
75407;BME280;63978;55.814;37.340;2022-10-16T07:05:41;101249.97;;;15.87;40.97
75407;BME280;63978;55.814;37.340;2022-10-16T07:08:07;101255.19;;;15.94;41.03
75407;BME280;63978;55.814;37.340;2022-10-16T07:10:34;101257.41;;;16.02;40.82
75407;BME280;63978;55.814;37.340;2022-10-16T07:12:59;101252.50;;;16.09;40.71
75407;BME280;63978;55.814;37.340;2022-10-16T07:15:26;101254.19;;;16.15;40.58
75407;BME280;63978;55.814;37.340;2022-10-16T07:17:51;101247.09;;;16.19;40.50
75407;BME280;63978;55.814;37.340;2022-10-16T07:20:17;101254.50;;;16.24;40.55
75407;BME280;63978;55.814;37.340;2022-10-16T07:22:43;101240.00;;;16.23;40.24
75407;BME280;63978;55.814;37.340;2022-10-16T07:25:08;101252.88;;;16.33;40.20
75407;BME280;63978;55.814;37.340;2022-10-16T07:27:34;101248.53;;;16.37;40.08
75407;BME280;63978;55.814;37.340;2022-10-16T07:30:00;101259.47;;;16.37;40.09
75407;BME280;63978;55.814;37.340;2022-10-16T07:32:26;101260.03;;;16.44;40.08
75407;BME280;63978;55.814;37.340;2022-10-16T07:34:52;101259.22;;;16.49;40.02
75407;BME280;63978;55.814;37.340;2022-10-16T07:37:18;101258.44;;;16.53;40.11
75407;BME280;63978;55.814;37.340;2022-10-16T07:39:44;101253.78;;;16.54;39.94
75407;BME280;63978;55.814;37.340;2022-10-16T07:42:09;101245.84;;;16.63;39.69
75407;BME280;63978;55.814;37.340;2022-10-16T07:44:35;101249.13;;;16.59;39.54
75407;BME280;63978;55.814;37.340;2022-10-16T07:47:00;101261.19;;;16.69;39.68
75407;BME280;63978;55.814;37.340;2022-10-16T07:49:25;101273.25;;;16.73;39.70
75407;BME280;63978;55.814;37.340;2022-10-16T07:51:51;101249.19;;;16.75;39.63
75407;BME280;63978;55.814;37.340;2022-10-16T07:54:16;101257.13;;;16.76;39.66
75407;BME280;63978;55.814;37.340;2022-10-16T07:56:42;101255.50;;;16.80;39.42
75407;BME280;63978;55.814;37.340;2022-10-16T07:59:08;101253.03;;;16.84;39.72
75407;BME280;63978;55.814;37.340;2022-10-16T08:01:33;101258.78;;;16.87;39.56
75407;BME280;63978;55.814;37.340;2022-10-16T08:03:59;101259.88;;;16.91;39.63
75407;BME280;63978;55.814;37.340;2022-10-16T08:06:24;101252.78;;;16.90;39.11
75407;BME280;63978;55.814;37.340;2022-10-16T08:08:50;101249.50;;;16.94;39.38
75407;BME280;63978;55.814;37.340;2022-10-16T08:11:15;101242.94;;;16.89;39.48
75407;BME280;63978;55.814;37.340;2022-10-16T08:13:41;101256.03;;;17.03;39.54
75407;BME280;63978;55.814;37.340;2022-10-16T08:16:07;101252.22;;;17.04;39.67
75407;BME280;63978;55.814;37.340;2022-10-16T08:18:40;101253.03;;;17.04;39.33
75407;BME280;63978;55.814;37.340;2022-10-16T08:21:07;101249.19;;;17.05;39.43
75407;BME280;63978;55.814;37.340;2022-10-16T08:23:33;101253.31;;;17.13;39.33
75407;BME280;63978;55.814;37.340;2022-10-16T08:26:04;101254.13;;;17.18;39.14
75407;BME280;63978;55.814;37.340;2022-10-16T08:28:29;101247.28;;;17.21;39.10
75407;BME280;63978;55.814;37.340;2022-10-16T08:30:55;101252.50;;;17.22;39.17
75407;BME280;63978;55.814;37.340;2022-10-16T08:33:22;101255.50;;;17.26;39.01
75407;BME280;63978;55.814;37.340;2022-10-16T08:35:53;101254.41;;;17.27;39.38
75407;BME280;63978;55.814;37.340;2022-10-16T08:38:19;101253.31;;;17.28;39.13
75407;BME280;63978;55.814;37.340;2022-10-16T08:40:45;101247.84;;;17.28;39.00
75407;BME280;63978;55.814;37.340;2022-10-16T08:51:08;101212.81;;;17.30;38.67
75407;BME280;63978;55.814;37.340;2022-10-16T08:53:43;101238.53;;;17.44;38.81
75407;BME280;63978;55.814;37.340;2022-10-16T08:56:10;101241.28;;;17.44;39.07
75407;BME280;63978;55.814;37.340;2022-10-16T08:58:35;101241.81;;;17.46;38.67
75407;BME280;63978;55.814;37.340;2022-10-16T09:01:03;101240.72;;;17.47;38.70
75407;BME280;63978;55.814;37.340;2022-10-16T09:12:07;101229.72;;;17.57;38.23
75407;BME280;63978;55.814;37.340;2022-10-16T09:17:49;101232.47;;;17.63;37.92
75407;BME280;63978;55.814;37.340;2022-10-16T09:20:34;101231.94;;;17.66;38.04
75407;BME280;63978;55.814;37.340;2022-10-16T09:25:31;101228.63;;;17.69;37.71
75407;BME280;63978;55.814;37.340;2022-10-16T09:27:57;101223.16;;;17.74;37.74
75407;BME280;63978;55.814;37.340;2022-10-16T09:30:27;101229.72;;;17.78;37.42
75407;BME280;63978;55.814;37.340;2022-10-16T09:32:54;101228.34;;;17.80;37.66
75407;BME280;63978;55.814;37.340;2022-10-16T09:35:35;101217.13;;;17.77;37.44
75407;BME280;63978;55.814;37.340;2022-10-16T09:38:01;101223.69;;;17.81;37.21
75407;BME280;63978;55.814;37.340;2022-10-16T09:40:37;101214.91;;;17.84;37.42
75407;BME280;63978;55.814;37.340;2022-10-16T09:46:02;101217.09;;;17.87;37.20
75407;BME280;63978;55.814;37.340;2022-10-16T09:48:33;101207.78;;;17.88;37.08
75407;BME280;63978;55.814;37.340;2022-10-16T09:51:04;101212.69;;;17.91;36.96
75407;BME280;63978;55.814;37.340;2022-10-16T09:53:43;101207.47;;;17.95;37.05
75407;BME280;63978;55.814;37.340;2022-10-16T09:56:10;101192.16;;;17.94;36.84
75407;BME280;63978;55.814;37.340;2022-10-16T09:58:42;101206.91;;;17.98;36.74
75407;BME280;63978;55.814;37.340;2022-10-16T10:01:13;101200.59;;;17.97;36.58
75407;BME280;63978;55.814;37.340;2022-10-16T10:03:42;101205.50;;;18.00;36.68
75407;BME280;63978;55.814;37.340;2022-10-16T10:06:44;101206.63;;;17.99;36.69
75407;BME280;63978;55.814;37.340;2022-10-16T10:09:25;101202.50;;;18.02;36.47
75407;BME280;63978;55.814;37.340;2022-10-16T10:14:31;101195.63;;;18.04;36.24
75407;BME280;63978;55.814;37.340;2022-10-16T10:17:22;101196.47;;;18.05;36.46
75407;BME280;63978;55.814;37.340;2022-10-16T10:19:58;101195.63;;;18.09;36.26
75407;BME280;63978;55.814;37.340;2022-10-16T10:28:06;101192.34;;;18.07;36.51
75407;BME280;63978;55.814;37.340;2022-10-16T10:36:14;101193.13;;;18.18;36.12
75407;BME280;63978;55.814;37.340;2022-10-16T10:46:57;101194.72;;;18.24;35.97
75407;BME280;63978;55.814;37.340;2022-10-16T10:52:41;101188.97;;;18.26;36.42
75407;BME280;63978;55.814;37.340;2022-10-16T11:06:20;101178.03;;;18.20;36.20
75407;BME280;63978;55.814;37.340;2022-10-16T11:09:12;101171.22;;;18.13;36.17
75407;BME280;63978;55.814;37.340;2022-10-16T11:11:46;101188.44;;;18.23;36.19
75407;BME280;63978;55.814;37.340;2022-10-16T11:16:50;101169.28;;;18.18;36.39
75407;BME280;63978;55.814;37.340;2022-10-16T11:19:38;101169.53;;;18.22;36.30
75407;BME280;63978;55.814;37.340;2022-10-16T11:22:25;101179.09;;;18.24;36.18
75407;BME280;63978;55.814;37.340;2022-10-16T11:25:03;101167.34;;;18.24;36.14
75407;BME280;63978;55.814;37.340;2022-10-16T11:30:19;101176.91;;;18.27;36.26
75407;BME280;63978;55.814;37.340;2022-10-16T11:33:00;101181.56;;;18.26;36.36
75407;BME280;63978;55.814;37.340;2022-10-16T11:37:57;101175.84;;;18.22;36.12
75407;BME280;63978;55.814;37.340;2022-10-16T11:40:37;101156.94;;;18.21;36.22
75407;BME280;63978;55.814;37.340;2022-10-16T11:43:22;101172.25;;;18.27;36.44
75407;BME280;63978;55.814;37.340;2022-10-16T11:45:53;101164.84;;;18.28;36.30
75407;BME280;63978;55.814;37.340;2022-10-16T11:50:56;101160.16;;;18.33;36.04
75407;BME280;63978;55.814;37.340;2022-10-16T11:55:53;101154.19;;;18.21;35.97
75407;BME280;63978;55.814;37.340;2022-10-16T12:04:13;101175.53;;;18.29;35.92
75407;BME280;63978;55.814;37.340;2022-10-16T12:06:44;101177.97;;;18.31;36.08
75407;BME280;63978;55.814;37.340;2022-10-16T12:09:21;101169.22;;;18.29;36.07
75407;BME280;63978;55.814;37.340;2022-10-16T12:11:48;101157.44;;;18.28;36.17
75407;BME280;63978;55.814;37.340;2022-10-16T12:17:00;101162.34;;;18.31;36.13
75407;BME280;63978;55.814;37.340;2022-10-16T12:19:30;101164.56;;;18.29;35.84
75407;BME280;63978;55.814;37.340;2022-10-16T12:21:58;101147.03;;;18.25;36.23
75407;BME280;63978;55.814;37.340;2022-10-16T12:24:39;101151.16;;;18.28;35.95
75407;BME280;63978;55.814;37.340;2022-10-16T12:27:29;101153.34;;;18.26;36.34
75407;BME280;63978;55.814;37.340;2022-10-16T12:30:04;101155.28;;;18.25;36.16
75407;BME280;63978;55.814;37.340;2022-10-16T12:32:36;101154.72;;;18.23;36.18
75407;BME280;63978;55.814;37.340;2022-10-16T12:35:04;101142.97;;;18.17;36.06
75407;BME280;63978;55.814;37.340;2022-10-16T12:37:33;101153.63;;;18.24;36.43
75407;BME280;63978;55.814;37.340;2022-10-16T12:40:15;101148.44;;;18.22;36.23
75407;BME280;63978;55.814;37.340;2022-10-16T12:42:41;101152.59;;;18.15;36.47
75407;BME280;63978;55.814;37.340;2022-10-16T12:45:30;101150.63;;;18.20;36.32
75407;BME280;63978;55.814;37.340;2022-10-16T12:47:57;101135.31;;;18.14;36.43
75407;BME280;63978;55.814;37.340;2022-10-16T12:52:49;101133.63;;;18.23;36.61
75407;BME280;63978;55.814;37.340;2022-10-16T12:55:17;101141.88;;;18.18;36.33
75407;BME280;63978;55.814;37.340;2022-10-16T12:57:49;101137.19;;;18.24;36.25
75407;BME280;63978;55.814;37.340;2022-10-16T13:04:03;101137.78;;;18.16;36.36
75407;BME280;63978;55.814;37.340;2022-10-16T13:06:39;101138.03;;;18.19;36.52
75407;BME280;63978;55.814;37.340;2022-10-16T13:09:33;101156.13;;;18.20;36.62
75407;BME280;63978;55.814;37.340;2022-10-16T13:12:22;101158.56;;;18.22;36.46
75407;BME280;63978;55.814;37.340;2022-10-16T13:29:22;101147.94;;;18.10;36.95
75407;BME280;63978;55.814;37.340;2022-10-16T13:31:48;101138.91;;;18.10;36.70
75407;BME280;63978;55.814;37.340;2022-10-16T13:34:17;101147.09;;;18.15;36.98
75407;BME280;63978;55.814;37.340;2022-10-16T13:36:48;101140.00;;;18.14;36.64
75407;BME280;63978;55.814;37.340;2022-10-16T13:39:27;101144.66;;;18.13;36.78
75407;BME280;63978;55.814;37.340;2022-10-16T13:42:05;101135.06;;;18.11;36.70
75407;BME280;63978;55.814;37.340;2022-10-16T13:44:41;101139.16;;;18.13;36.70
75407;BME280;63978;55.814;37.340;2022-10-16T13:47:18;101139.72;;;18.15;36.96
75407;BME280;63978;55.814;37.340;2022-10-16T13:49:45;101140.53;;;18.16;36.92
75407;BME280;63978;55.814;37.340;2022-10-16T13:52:18;101142.44;;;18.15;36.80
75407;BME280;63978;55.814;37.340;2022-10-16T13:54:44;101139.16;;;18.13;36.67
75407;BME280;63978;55.814;37.340;2022-10-16T13:57:17;101138.34;;;18.13;36.93
75407;BME280;63978;55.814;37.340;2022-10-16T13:59:43;101147.66;;;18.12;36.77
75407;BME280;63978;55.814;37.340;2022-10-16T14:02:19;101135.88;;;18.11;36.83
75407;BME280;63978;55.814;37.340;2022-10-16T14:04:47;101136.75;;;18.07;36.75
75407;BME280;63978;55.814;37.340;2022-10-16T14:07:14;101134.28;;;18.05;36.97
75407;BME280;63978;55.814;37.340;2022-10-16T14:09:48;101129.38;;;18.02;37.22
75407;BME280;63978;55.814;37.340;2022-10-16T14:12:15;101145.78;;;18.07;36.83
75407;BME280;63978;55.814;37.340;2022-10-16T14:14:43;101133.75;;;18.03;37.00
75407;BME280;63978;55.814;37.340;2022-10-16T14:17:35;101139.78;;;18.00;37.02
75407;BME280;63978;55.814;37.340;2022-10-16T14:20:03;101138.97;;;18.00;37.05
75407;BME280;63978;55.814;37.340;2022-10-16T14:22:38;101134.06;;;17.97;37.17
75407;BME280;63978;55.814;37.340;2022-10-16T14:28:03;101138.16;;;17.99;37.08
75407;BME280;63978;55.814;37.340;2022-10-16T14:30:31;101136.50;;;17.98;37.25
75407;BME280;63978;55.814;37.340;2022-10-16T14:33:02;101141.97;;;17.98;37.06
75407;BME280;63978;55.814;37.340;2022-10-16T14:35:32;101139.78;;;18.00;37.42
75407;BME280;63978;55.814;37.340;2022-10-16T14:37:59;101134.31;;;18.00;37.01
75407;BME280;63978;55.814;37.340;2022-10-16T14:40:31;101128.56;;;17.97;37.42
75407;BME280;63978;55.814;37.340;2022-10-16T14:42:57;101125.06;;;17.91;37.30
75407;BME280;63978;55.814;37.340;2022-10-16T14:45:31;101143.63;;;17.99;37.45
75407;BME280;63978;55.814;37.340;2022-10-16T14:48:01;101141.97;;;17.98;37.57
75407;BME280;63978;55.814;37.340;2022-10-16T14:50:27;101145.31;;;17.95;37.48
75407;BME280;63978;55.814;37.340;2022-10-16T14:52:54;101148.63;;;17.92;37.56
75407;BME280;63978;55.814;37.340;2022-10-16T14:55:20;101144.25;;;17.91;37.51